Fourchu: Past 24 Hour Conditions

 

Twillingate

01:30 AM NDT 26 October 2014
This table is a summary of hourly weather conditions for the past 24 hours.
Date / Time
(NDT)
Wind(knots) Conditions Visibility(km) Pressure(kPa) Air tempC) Relative humidity(%) Dew pointC)
26 October 2014
1:30 ENE 27 gust 34 N/A N/A 100.2 5 91 3
0:30 ENE 25 gust 37 N/A N/A 100.2 4 93 3
25 October 2014
23:30 ENE 28 gust 42 N/A N/A 100.2 5 93 4
22:30 ENE 33 gust 41 N/A N/A 100.2 4 92 3
21:30 NE 31 gust 41 N/A N/A 100.2 4 93 4
20:30 ENE 28 gust 37 N/A N/A 100.2 4 94 4
19:30 ENE 33 gust 39 N/A N/A 100.2 4 94 3
18:30 ENE 29 gust 38 N/A N/A 100.2 4 94 4
17:30 ENE 26 gust 38 N/A N/A 100.2 4 94 3
16:30 ENE 32 gust 42 N/A N/A 100.2 4 93 3
15:30 ENE 34 gust 42 N/A N/A 100.2 4 93 3
14:30 ENE 30 gust 40 N/A N/A 100.2 5 92 4
13:30 ENE 28 gust 41 N/A N/A 100.2 5 92 3
12:30 NE 23 gust 38 N/A N/A 100.2 5 90 4
11:30 ENE 31 gust 40 N/A N/A 100.3 5 91 4
10:30 NE 25 gust 39 N/A N/A 100.3 5 93 4
9:30 ENE 32 gust 41 N/A N/A 100.3 5 94 4
8:30 NE 25 gust 37 N/A N/A 100.3 5 95 4
7:30 NE 22 gust 32 N/A N/A 100.3 5 94 4
6:30 ENE 21 gust 33 N/A N/A 100.3 5 94 4
5:30 NE 23 gust 34 N/A N/A 100.3 5 94 4
4:30 ENE 24 gust 36 N/A N/A 100.3 5 94 4
3:30 ENE 22 gust 36 N/A N/A 100.3 5 94 4
2:30 NE 19 gust 34 N/A N/A 100.4 5 94 4
1:30 ENE 20 gust 35 N/A N/A 100.5 5 94 4
 
Map of Atlantic - Newfoundland marine weather areas Southwestern Grand Banks - 44138 Banquereau - 44139 Tail of the Bank - 44140 Nickerson Bank - 44251 Northeast Burgeo Bank - 44255 Blanc-Sablon Airport Cap Whittle Chevery Natashquan Airport Heath Point Miscou Island Grand Étang Ingonish Beach North Mountain St.Paul Island J.A. Douglas McCurdy Sydney Airport Charlottetown Airport East Point North Cape Argentia Bonavista Burgeo Cape Race Corner Brook Daniel's Harbour Englee Ferolle Point La Scie Port aux Basques Rocky Harbour Sagona Island St. Anthony Airport St. John's Int'l Airport St. Lawrence Stephenville Airport Twillingate Winterland Wreckhouse Cartwright Airport Mary's Harbour Grates Cove Pool's Island Marticot Island Long Pond Îles de la Madeleine Airport
Legend: buoyBuoy land stationLand Station